In Rescue
 
Open Full Screen Window  High Contrast Mode
March 19, 2019 7:19 PM EDT
Weather Information
Wind Direction
  ---
Wind Speed
  00 kt (0 mph)
Wind Gust
  00 kt (0 mph)
Altimeter
30.33 in
Visibility
10 SM
Temperature
-03° C
27° F
Dewpoint
-17° C
F
Humidity
33%
Sky Condition
Clear
VFR

METAR KCDA 192319Z AUTO 00000KT 10SM CLR M03/M17 A3033 RMK AO2 T10261167

FAA Disclaimer: The data displayed is for advisory purposes only and is not to be used for flight planning or operations.